Straumvik — LEYJ — position and weather

sailwx.info

Track history (hours):
 
Tides and Currents Weather Stations Pressure Air Temp Water Temp Dewpoint Dewpoint Depression Visibility Wind Speed Wind Dir Waves Ship Positions

Straumvik

Last reported at 2017-Jan-24 05:33 UTC. Time now 2017-Jan-24 21:25 UTC.
Position N 59°56' E 005°48'.

Length 50 m; draft 5 m.

Type: Ship. MMSI: 258260000.

Date/timePositionNaut miles runAvg speedWind from/ knotsBaromVisibWave heightAir tempDewpointWater temp
2017-Jan-24 05:33N 59°56' E 005°48'4 0.9
2017-Jan-24 01:31N 59°54' E 005°43'4 1.9
2017-Jan-23 23:32N 59°50' E 005°43'0 0.0
2017-Jan-23 22:08N 59°50' E 005°43'0 0.0
2017-Jan-23 21:31N 59°50' E 005°43'0 0.0
2017-Jan-23 20:29N 59°50' E 005°43'0 0.0
2017-Jan-23 19:23N 59°50' E 005°43'3 3.4
2017-Jan-23 18:33N 59°53' E 005°42'8 0.3
2017-Jan-22 14:21N 59°57' E 005°55'8 9.1
2017-Jan-22 13:28N 59°53' E 005°42'3 3.0
2017-Jan-22 12:30N 59°50' E 005°43'0 0.0
2017-Jan-22 11:33N 59°50' E 005°43'0 0.0
2017-Jan-22 10:27N 59°50' E 005°43'0 0.0
2017-Jan-22 09:33N 59°50' E 005°43'0 0.0
2017-Jan-22 08:13N 59°50' E 005°43'0 0.3
2017-Jan-22 07:26N 59°50' E 005°43'0 0.0
2017-Jan-22 06:32N 59°50' E 005°43'0 0.0
2017-Jan-22 05:32N 59°50' E 005°43'0 0.0
2017-Jan-22 04:32N 59°50' E 005°43'0 0.0
2017-Jan-22 03:32N 59°50' E 005°43'0 0.0
2017-Jan-22 02:17N 59°50' E 005°43'0 0.0
2017-Jan-22 01:23N 59°50' E 005°43'3 3.0
2017-Jan-22 00:32N 59°52' E 005°42'  
Track history (hours):
 
Tides and Currents Weather Stations Pressure Air Temp Water Temp Dewpoint Dewpoint Depression Visibility Wind Speed Wind Dir Waves Ship Positions

Straumvik

Last reported at 2017-Jan-24 05:33 UTC. Time now 2017-Jan-24 21:25 UTC.
Position N 59°56' E 005°48'.

Length 50 m; draft 5 m.

Type: Ship. MMSI: 258260000.

Date/timePositionNaut miles runAvg speedWind from/ knotsBaromVisibWave heightAir tempDewpointWater temp
2017-Jan-24 05:33N 59°56' E 005°48'4 0.9
2017-Jan-24 01:31N 59°54' E 005°43'4 1.9
2017-Jan-23 23:32N 59°50' E 005°43'0 0.0
2017-Jan-23 22:08N 59°50' E 005°43'0 0.0
2017-Jan-23 21:31N 59°50' E 005°43'0 0.0
2017-Jan-23 20:29N 59°50' E 005°43'0 0.0
2017-Jan-23 19:23N 59°50' E 005°43'3 3.4
2017-Jan-23 18:33N 59°53' E 005°42'8 0.3
2017-Jan-22 14:21N 59°57' E 005°55'8 9.1
2017-Jan-22 13:28N 59°53' E 005°42'3 3.0
2017-Jan-22 12:30N 59°50' E 005°43'0 0.0
2017-Jan-22 11:33N 59°50' E 005°43'0 0.0
2017-Jan-22 10:27N 59°50' E 005°43'0 0.0
2017-Jan-22 09:33N 59°50' E 005°43'0 0.0
2017-Jan-22 08:13N 59°50' E 005°43'0 0.3
2017-Jan-22 07:26N 59°50' E 005°43'0 0.0
2017-Jan-22 06:32N 59°50' E 005°43'0 0.0
2017-Jan-22 05:32N 59°50' E 005°43'0 0.0
2017-Jan-22 04:32N 59°50' E 005°43'0 0.0
2017-Jan-22 03:32N 59°50' E 005°43'0 0.0
2017-Jan-22 02:17N 59°50' E 005°43'0 0.0
2017-Jan-22 01:23N 59°50' E 005°43'3 3.0
2017-Jan-22 00:32N 59°52' E 005°42'  

Dump ship's entire track history